sensor_id;sensor_type;location;lat;lon;timestamp;pressure;altitude;pressure_sealevel;temperature;humidity
76973;BME280;65907;53.640;10.050;2023-08-30T00:01:40;100241.34;;;25.07;42.85
76973;BME280;65907;53.640;10.050;2023-08-30T00:04:06;100244.47;;;25.02;42.86
76973;BME280;65907;53.640;10.050;2023-08-30T00:06:31;100243.47;;;25.03;42.93
76973;BME280;65907;53.640;10.050;2023-08-30T00:08:57;100238.41;;;24.94;43.15
76973;BME280;65907;53.640;10.050;2023-08-30T00:11:25;100235.94;;;25.00;42.82
76973;BME280;65907;53.640;10.050;2023-08-30T00:13:51;100233.31;;;24.84;43.18
76973;BME280;65907;53.640;10.050;2023-08-30T00:16:16;100229.34;;;24.88;43.24
76973;BME280;65907;53.640;10.050;2023-08-30T00:18:42;100232.31;;;24.85;43.26
76973;BME280;65907;53.640;10.050;2023-08-30T00:21:07;100228.19;;;24.99;42.85
76973;BME280;65907;53.640;10.050;2023-08-30T00:23:35;100236.75;;;24.92;43.07
76973;BME280;65907;53.640;10.050;2023-08-30T00:26:00;100236.06;;;24.99;42.78
76973;BME280;65907;53.640;10.050;2023-08-30T00:28:25;100239.22;;;24.94;42.90
76973;BME280;65907;53.640;10.050;2023-08-30T00:30:54;100240.03;;;24.95;42.90
76973;BME280;65907;53.640;10.050;2023-08-30T00:33:20;100237.25;;;24.96;42.95
76973;BME280;65907;53.640;10.050;2023-08-30T00:35:45;100233.13;;;24.94;42.85
76973;BME280;65907;53.640;10.050;2023-08-30T00:38:11;100236.25;;;24.89;42.88
76973;BME280;65907;53.640;10.050;2023-08-30T00:40:39;100233.63;;;24.97;42.66
76973;BME280;65907;53.640;10.050;2023-08-30T00:43:07;100233.13;;;24.94;42.86
76973;BME280;65907;53.640;10.050;2023-08-30T00:45:37;100229.88;;;24.83;42.98
76973;BME280;65907;53.640;10.050;2023-08-30T00:48:04;100226.59;;;24.81;43.12
76973;BME280;65907;53.640;10.050;2023-08-30T00:50:29;100227.22;;;24.91;42.75
76973;BME280;65907;53.640;10.050;2023-08-30T00:52:55;100226.91;;;24.86;42.95
76973;BME280;65907;53.640;10.050;2023-08-30T00:55:20;100227.06;;;24.85;43.05
76973;BME280;65907;53.640;10.050;2023-08-30T00:57:45;100236.06;;;24.99;42.60
76973;BME280;65907;53.640;10.050;2023-08-30T01:00:11;100233.31;;;24.84;42.83
76973;BME280;65907;53.640;10.050;2023-08-30T01:02:36;100228.88;;;24.84;42.72
76973;BME280;65907;53.640;10.050;2023-08-30T01:05:02;100225.41;;;24.84;42.72
76973;BME280;65907;53.640;10.050;2023-08-30T01:07:27;100222.47;;;24.95;42.50
76973;BME280;65907;53.640;10.050;2023-08-30T01:09:53;100221.00;;;24.84;42.50
76973;BME280;65907;53.640;10.050;2023-08-30T01:12:29;100224.25;;;24.78;43.08
76973;BME280;65907;53.640;10.050;2023-08-30T01:14:58;100222.44;;;24.87;42.58
76973;BME280;65907;53.640;10.050;2023-08-30T01:17:27;100226.72;;;24.71;42.95
76973;BME280;65907;53.640;10.050;2023-08-30T01:20:00;100229.50;;;24.70;42.95
76973;BME280;65907;53.640;10.050;2023-08-30T01:27:41;100214.25;;;24.82;42.68
76973;BME280;65907;53.640;10.050;2023-08-30T01:30:07;100212.59;;;24.81;42.78
76973;BME280;65907;53.640;10.050;2023-08-30T01:32:34;100209.97;;;24.81;42.64
76973;BME280;65907;53.640;10.050;2023-08-30T01:35:00;100209.00;;;24.82;42.48
76973;BME280;65907;53.640;10.050;2023-08-30T01:37:26;100204.88;;;24.79;42.50
76973;BME280;65907;53.640;10.050;2023-08-30T01:39:52;100202.72;;;24.74;42.75
76973;BME280;65907;53.640;10.050;2023-08-30T01:42:17;100206.34;;;24.73;42.61
76973;BME280;65907;53.640;10.050;2023-08-30T01:44:47;100203.22;;;24.78;42.67
76973;BME280;65907;53.640;10.050;2023-08-30T01:47:12;100203.22;;;24.70;42.74
76973;BME280;65907;53.640;10.050;2023-08-30T01:49:37;100203.56;;;24.75;42.58
76973;BME280;65907;53.640;10.050;2023-08-30T01:52:04;100208.00;;;24.74;42.71
76973;BME280;65907;53.640;10.050;2023-08-30T01:54:31;100205.06;;;24.77;42.59
76973;BME280;65907;53.640;10.050;2023-08-30T01:56:57;100195.03;;;24.81;42.47
76973;BME280;65907;53.640;10.050;2023-08-30T01:59:23;100197.66;;;24.81;42.47
76973;BME280;65907;53.640;10.050;2023-08-30T02:01:48;100198.97;;;24.77;42.40
76973;BME280;65907;53.640;10.050;2023-08-30T02:04:13;100200.75;;;24.85;42.16
76973;BME280;65907;53.640;10.050;2023-08-30T02:06:42;100204.41;;;24.75;42.20
76973;BME280;65907;53.640;10.050;2023-08-30T02:11:33;100196.63;;;24.74;42.46
76973;BME280;65907;53.640;10.050;2023-08-30T02:13:59;100195.84;;;24.73;42.59
76973;BME280;65907;53.640;10.050;2023-08-30T02:16:27;100198.78;;;24.70;42.31
76973;BME280;65907;53.640;10.050;2023-08-30T02:18:52;100190.41;;;24.75;42.36
76973;BME280;65907;53.640;10.050;2023-08-30T02:21:18;100189.09;;;24.79;42.03
76973;BME280;65907;53.640;10.050;2023-08-30T02:23:43;100196.34;;;24.77;42.44
76973;BME280;65907;53.640;10.050;2023-08-30T02:26:08;100198.16;;;24.68;42.43
76973;BME280;65907;53.640;10.050;2023-08-30T02:28:34;100188.59;;;24.67;42.40
76973;BME280;65907;53.640;10.050;2023-08-30T02:30:59;100194.34;;;24.79;42.12
76973;BME280;65907;53.640;10.050;2023-08-30T02:33:24;100189.44;;;24.76;42.37
76973;BME280;65907;53.640;10.050;2023-08-30T02:35:50;100184.16;;;24.76;42.25
76973;BME280;65907;53.640;10.050;2023-08-30T02:38:17;100190.06;;;24.70;42.49
76973;BME280;65907;53.640;10.050;2023-08-30T02:40:43;100185.66;;;24.79;42.28
76973;BME280;65907;53.640;10.050;2023-08-30T02:43:08;100183.34;;;24.84;42.04
76973;BME280;65907;53.640;10.050;2023-08-30T02:45:33;100192.72;;;24.78;42.06
76973;BME280;65907;53.640;10.050;2023-08-30T02:47:58;100184.34;;;24.83;42.05
76973;BME280;65907;53.640;10.050;2023-08-30T02:50:24;100178.06;;;24.67;42.42
76973;BME280;65907;53.640;10.050;2023-08-30T02:52:50;100182.38;;;24.76;42.22
76973;BME280;65907;53.640;10.050;2023-08-30T02:55:16;100179.22;;;24.73;42.14
76973;BME280;65907;53.640;10.050;2023-08-30T02:57:41;100173.31;;;24.71;42.18
76973;BME280;65907;53.640;10.050;2023-08-30T03:00:06;100171.69;;;24.78;42.21
76973;BME280;65907;53.640;10.050;2023-08-30T03:02:32;100180.38;;;24.87;41.73
76973;BME280;65907;53.640;10.050;2023-08-30T03:04:58;100176.78;;;24.80;41.85
76973;BME280;65907;53.640;10.050;2023-08-30T03:07:24;100173.50;;;24.69;42.10
76973;BME280;65907;53.640;10.050;2023-08-30T03:09:52;100170.22;;;24.75;42.08
76973;BME280;65907;53.640;10.050;2023-08-30T03:12:21;100173.31;;;24.71;42.07
76973;BME280;65907;53.640;10.050;2023-08-30T03:14:46;100180.06;;;24.73;42.04
76973;BME280;65907;53.640;10.050;2023-08-30T03:17:11;100180.41;;;24.70;42.26
76973;BME280;65907;53.640;10.050;2023-08-30T03:19:36;100171.69;;;24.61;42.40
76973;BME280;65907;53.640;10.050;2023-08-30T03:22:02;100166.09;;;24.65;42.23
76973;BME280;65907;53.640;10.050;2023-08-30T03:24:27;100163.47;;;24.65;42.21
76973;BME280;65907;53.640;10.050;2023-08-30T03:26:54;100167.41;;;24.60;42.36
76973;BME280;65907;53.640;10.050;2023-08-30T03:29:22;100173.66;;;24.76;42.07
76973;BME280;65907;53.640;10.050;2023-08-30T03:31:47;100177.75;;;24.62;42.77
76973;BME280;65907;53.640;10.050;2023-08-30T03:34:15;100174.50;;;24.76;42.31
76973;BME280;65907;53.640;10.050;2023-08-30T03:36:42;100175.44;;;24.67;42.00
76973;BME280;65907;53.640;10.050;2023-08-30T03:39:15;100170.53;;;24.72;42.13
76973;BME280;65907;53.640;10.050;2023-08-30T03:41:40;100177.59;;;24.72;42.30
76973;BME280;65907;53.640;10.050;2023-08-30T03:44:06;100164.63;;;24.79;41.77
76973;BME280;65907;53.640;10.050;2023-08-30T03:46:31;100171.03;;;24.76;41.91
76973;BME280;65907;53.640;10.050;2023-08-30T03:48:56;100172.16;;;24.65;42.13
76973;BME280;65907;53.640;10.050;2023-08-30T03:51:21;100163.97;;;24.68;42.42
76973;BME280;65907;53.640;10.050;2023-08-30T03:53:52;100162.63;;;24.64;42.36
76973;BME280;65907;53.640;10.050;2023-08-30T03:56:17;100161.66;;;24.73;42.01
76973;BME280;65907;53.640;10.050;2023-08-30T03:58:44;100164.47;;;24.80;41.94
76973;BME280;65907;53.640;10.050;2023-08-30T04:01:09;100163.63;;;24.80;42.12
76973;BME280;65907;53.640;10.050;2023-08-30T04:03:34;100155.91;;;24.70;42.09
76973;BME280;65907;53.640;10.050;2023-08-30T04:06:00;100156.25;;;24.58;42.43
76973;BME280;65907;53.640;10.050;2023-08-30T04:08:30;100145.72;;;24.67;42.03
76973;BME280;65907;53.640;10.050;2023-08-30T04:10:55;100152.13;;;24.64;42.33
76973;BME280;65907;53.640;10.050;2023-08-30T04:13:20;100150.50;;;24.55;42.45
76973;BME280;65907;53.640;10.050;2023-08-30T04:15:46;100143.13;;;24.58;42.30
76973;BME280;65907;53.640;10.050;2023-08-30T04:18:11;100151.31;;;24.63;42.17
76973;BME280;65907;53.640;10.050;2023-08-30T04:20:43;100137.84;;;24.58;42.24
76973;BME280;65907;53.640;10.050;2023-08-30T04:23:12;100143.13;;;24.58;42.36
76973;BME280;65907;53.640;10.050;2023-08-30T04:25:37;100133.44;;;24.51;42.49
76973;BME280;65907;53.640;10.050;2023-08-30T04:28:03;100134.56;;;24.65;42.24
76973;BME280;65907;53.640;10.050;2023-08-30T04:30:28;100138.81;;;24.66;42.21
76973;BME280;65907;53.640;10.050;2023-08-30T04:32:53;100139.63;;;24.74;41.83
76973;BME280;65907;53.640;10.050;2023-08-30T04:35:18;100141.78;;;24.62;42.18
76973;BME280;65907;53.640;10.050;2023-08-30T04:37:44;100135.34;;;24.65;42.10
76973;BME280;65907;53.640;10.050;2023-08-30T04:40:09;100134.38;;;24.74;41.77
76973;BME280;65907;53.640;10.050;2023-08-30T04:42:34;100139.97;;;24.63;42.19
76973;BME280;65907;53.640;10.050;2023-08-30T04:45:00;100134.06;;;24.77;41.75
76973;BME280;65907;53.640;10.050;2023-08-30T04:47:26;100135.38;;;24.57;42.16
76973;BME280;65907;53.640;10.050;2023-08-30T04:49:51;100133.97;;;25.11;41.49
76973;BME280;65907;53.640;10.050;2023-08-30T04:52:17;100134.59;;;25.21;41.47
76973;BME280;65907;53.640;10.050;2023-08-30T04:54:44;100135.59;;;25.12;41.63
76973;BME280;65907;53.640;10.050;2023-08-30T04:57:13;100132.66;;;25.15;41.47
76973;BME280;65907;53.640;10.050;2023-08-30T04:59:41;100133.59;;;25.14;41.51
76973;BME280;65907;53.640;10.050;2023-08-30T05:02:06;100134.00;;;25.02;41.61
76973;BME280;65907;53.640;10.050;2023-08-30T05:04:32;100128.09;;;25.00;41.70
76973;BME280;65907;53.640;10.050;2023-08-30T05:06:57;100125.28;;;25.02;41.73
76973;BME280;65907;53.640;10.050;2023-08-30T05:09:22;100132.91;;;24.80;42.11
76973;BME280;65907;53.640;10.050;2023-08-30T05:11:50;100129.44;;;24.88;41.96
76973;BME280;65907;53.640;10.050;2023-08-30T05:14:15;100130.22;;;24.97;41.99
76973;BME280;65907;53.640;10.050;2023-08-30T05:16:40;100139.25;;;25.02;41.73
76973;BME280;65907;53.640;10.050;2023-08-30T05:19:05;100141.94;;;24.44;42.63
76973;BME280;65907;53.640;10.050;2023-08-30T05:21:31;100142.28;;;24.08;43.17
76973;BME280;65907;53.640;10.050;2023-08-30T05:23:56;100137.50;;;23.95;43.13
76973;BME280;65907;53.640;10.050;2023-08-30T05:26:21;100134.69;;;23.88;43.20
76973;BME280;65907;53.640;10.050;2023-08-30T05:28:49;100139.59;;;23.83;43.44
76973;BME280;65907;53.640;10.050;2023-08-30T05:31:14;100134.84;;;23.87;43.28
76973;BME280;65907;53.640;10.050;2023-08-30T05:33:39;100136.31;;;23.81;43.48
76973;BME280;65907;53.640;10.050;2023-08-30T05:36:05;100132.69;;;23.74;43.49
76973;BME280;65907;53.640;10.050;2023-08-30T05:38:30;100138.44;;;23.69;43.68
76973;BME280;65907;53.640;10.050;2023-08-30T05:40:55;100134.69;;;23.80;43.32
76973;BME280;65907;53.640;10.050;2023-08-30T05:43:20;100135.47;;;23.72;43.34
76973;BME280;65907;53.640;10.050;2023-08-30T05:45:48;100142.19;;;23.75;43.17
76973;BME280;65907;53.640;10.050;2023-08-30T05:48:16;100141.06;;;23.77;43.08
76973;BME280;65907;53.640;10.050;2023-08-30T05:50:41;100145.94;;;23.64;43.48
76973;BME280;65907;53.640;10.050;2023-08-30T05:53:07;100141.88;;;23.70;43.21
76973;BME280;65907;53.640;10.050;2023-08-30T05:55:32;100149.41;;;23.73;43.16
76973;BME280;65907;53.640;10.050;2023-08-30T05:57:57;100152.69;;;23.67;43.66
76973;BME280;65907;53.640;10.050;2023-08-30T06:00:22;100140.94;;;23.96;43.32
76973;BME280;65907;53.640;10.050;2023-08-30T06:02:48;100144.09;;;24.08;42.79
76973;BME280;65907;53.640;10.050;2023-08-30T06:05:16;100137.53;;;24.20;42.77
76973;BME280;65907;53.640;10.050;2023-08-30T06:07:41;100129.81;;;24.52;42.02
76973;BME280;65907;53.640;10.050;2023-08-30T06:10:09;100127.31;;;24.75;41.63
76973;BME280;65907;53.640;10.050;2023-08-30T06:12:37;100129.28;;;24.65;42.06
76973;BME280;65907;53.640;10.050;2023-08-30T06:15:02;100131.25;;;24.79;41.80
76973;BME280;65907;53.640;10.050;2023-08-30T06:17:31;100124.81;;;24.98;41.42
76973;BME280;65907;53.640;10.050;2023-08-30T06:19:56;100126.09;;;25.02;41.63
76973;BME280;65907;53.640;10.050;2023-08-30T06:22:24;100131.09;;;24.72;42.24
76973;BME280;65907;53.640;10.050;2023-08-30T06:24:49;100121.44;;;25.21;41.52
76973;BME280;65907;53.640;10.050;2023-08-30T06:27:14;100122.72;;;24.69;42.67
76973;BME280;65907;53.640;10.050;2023-08-30T06:29:40;100126.06;;;25.11;41.50
76973;BME280;65907;53.640;10.050;2023-08-30T06:32:05;100115.31;;;25.29;41.50
76973;BME280;65907;53.640;10.050;2023-08-30T06:34:30;100125.84;;;24.72;42.60
76973;BME280;65907;53.640;10.050;2023-08-30T06:36:55;100120.31;;;25.15;41.53
76973;BME280;65907;53.640;10.050;2023-08-30T06:39:21;100118.09;;;24.79;42.12
76973;BME280;65907;53.640;10.050;2023-08-30T06:41:46;100124.22;;;24.55;43.02
76973;BME280;65907;53.640;10.050;2023-08-30T06:44:11;100120.44;;;24.49;43.49
76973;BME280;65907;53.640;10.050;2023-08-30T06:46:39;100107.31;;;24.41;43.75
76973;BME280;65907;53.640;10.050;2023-08-30T06:49:05;100106.47;;;24.40;43.80
76973;BME280;65907;53.640;10.050;2023-08-30T06:51:30;100110.28;;;24.29;44.28
76973;BME280;65907;53.640;10.050;2023-08-30T06:53:55;100111.28;;;24.12;44.47
76973;BME280;65907;53.640;10.050;2023-08-30T06:56:25;100108.66;;;24.12;44.42
76973;BME280;65907;53.640;10.050;2023-08-30T06:58:50;100106.69;;;24.14;44.64
76973;BME280;65907;53.640;10.050;2023-08-30T07:01:15;100098.94;;;24.20;44.37
76973;BME280;65907;53.640;10.050;2023-08-30T07:03:40;100107.81;;;24.36;43.95
76973;BME280;65907;53.640;10.050;2023-08-30T07:06:06;100104.84;;;24.39;43.88
76973;BME280;65907;53.640;10.050;2023-08-30T07:08:33;100105.44;;;24.83;42.75
76973;BME280;65907;53.640;10.050;2023-08-30T07:11:01;100090.31;;;24.93;42.72
76973;BME280;65907;53.640;10.050;2023-08-30T07:13:26;100089.19;;;24.71;43.15
76973;BME280;65907;53.640;10.050;2023-08-30T07:15:51;100088.22;;;24.63;43.39
76973;BME280;65907;53.640;10.050;2023-08-30T07:18:19;100087.09;;;24.49;43.74
76973;BME280;65907;53.640;10.050;2023-08-30T07:20:44;100085.66;;;24.39;43.94
76973;BME280;65907;53.640;10.050;2023-08-30T07:23:09;100087.09;;;24.49;43.79
76973;BME280;65907;53.640;10.050;2023-08-30T07:25:36;100087.94;;;24.42;44.08
76973;BME280;65907;53.640;10.050;2023-08-30T07:28:02;100081.84;;;24.41;43.99
76973;BME280;65907;53.640;10.050;2023-08-30T07:30:29;100092.84;;;24.45;44.00
76973;BME280;65907;53.640;10.050;2023-08-30T07:32:57;100094.16;;;24.32;44.29
76973;BME280;65907;53.640;10.050;2023-08-30T07:35:24;100092.69;;;24.38;44.24
76973;BME280;65907;53.640;10.050;2023-08-30T07:37:50;100083.97;;;24.46;44.20
76973;BME280;65907;53.640;10.050;2023-08-30T07:40:15;100084.31;;;24.43;44.24
76973;BME280;65907;53.640;10.050;2023-08-30T07:42:40;100083.97;;;24.54;43.75
76973;BME280;65907;53.640;10.050;2023-08-30T07:45:05;100080.84;;;24.59;43.76
76973;BME280;65907;53.640;10.050;2023-08-30T07:47:33;100079.84;;;24.76;43.40
76973;BME280;65907;53.640;10.050;2023-08-30T07:49:58;100080.44;;;24.95;42.72
76973;BME280;65907;53.640;10.050;2023-08-30T07:52:24;100086.25;;;24.82;43.21
76973;BME280;65907;53.640;10.050;2023-08-30T07:54:51;100078.91;;;25.09;42.72
76973;BME280;65907;53.640;10.050;2023-08-30T07:57:16;100078.91;;;25.01;42.83
76973;BME280;65907;53.640;10.050;2023-08-30T07:59:42;100077.81;;;25.58;41.64
76973;BME280;65907;53.640;10.050;2023-08-30T08:02:08;100078.31;;;25.62;41.63
76973;BME280;65907;53.640;10.050;2023-08-30T08:04:33;100077.31;;;25.63;41.55
76973;BME280;65907;53.640;10.050;2023-08-30T08:06:59;100083.63;;;25.54;41.85
76973;BME280;65907;53.640;10.050;2023-08-30T08:09:26;100080.41;;;25.67;41.76
76973;BME280;65907;53.640;10.050;2023-08-30T08:11:52;100082.22;;;25.66;41.50
76973;BME280;65907;53.640;10.050;2023-08-30T08:14:17;100084.22;;;25.64;41.58
76973;BME280;65907;53.640;10.050;2023-08-30T08:16:42;100077.78;;;25.67;41.53
76973;BME280;65907;53.640;10.050;2023-08-30T08:19:08;100076.94;;;25.66;41.68
76973;BME280;65907;53.640;10.050;2023-08-30T08:21:33;100080.84;;;25.79;41.34
76973;BME280;65907;53.640;10.050;2023-08-30T08:23:59;100082.50;;;25.71;41.47
76973;BME280;65907;53.640;10.050;2023-08-30T08:26:24;100075.59;;;25.70;41.48
76973;BME280;65907;53.640;10.050;2023-08-30T08:28:50;100075.09;;;25.75;41.47
76973;BME280;65907;53.640;10.050;2023-08-30T08:31:15;100074.94;;;25.76;41.55
76973;BME280;65907;53.640;10.050;2023-08-30T08:33:40;100075.72;;;25.77;41.44
76973;BME280;65907;53.640;10.050;2023-08-30T08:36:06;100068.66;;;25.77;41.42
76973;BME280;65907;53.640;10.050;2023-08-30T08:38:31;100064.91;;;25.72;41.69
76973;BME280;65907;53.640;10.050;2023-08-30T08:41:03;100067.66;;;25.79;41.44
76973;BME280;65907;53.640;10.050;2023-08-30T08:43:29;100066.84;;;25.78;41.34
76973;BME280;65907;53.640;10.050;2023-08-30T08:46:02;100072.09;;;25.78;41.40
76973;BME280;65907;53.640;10.050;2023-08-30T08:48:31;100066.22;;;25.91;41.29
76973;BME280;65907;53.640;10.050;2023-08-30T08:50:58;100064.16;;;25.86;41.23
76973;BME280;65907;53.640;10.050;2023-08-30T08:53:24;100063.50;;;25.84;41.28
76973;BME280;65907;53.640;10.050;2023-08-30T08:55:49;100060.22;;;25.82;41.65
76973;BME280;65907;53.640;10.050;2023-08-30T08:58:15;100056.25;;;25.86;41.53
76973;BME280;65907;53.640;10.050;2023-08-30T09:00:43;100056.41;;;25.85;41.43
76973;BME280;65907;53.640;10.050;2023-08-30T09:03:09;100048.69;;;25.83;41.49
76973;BME280;65907;53.640;10.050;2023-08-30T09:05:37;100049.88;;;25.81;41.66
76973;BME280;65907;53.640;10.050;2023-08-30T09:08:02;100051.03;;;25.78;41.49
76973;BME280;65907;53.640;10.050;2023-08-30T09:10:29;100049.88;;;25.81;41.56
76973;BME280;65907;53.640;10.050;2023-08-30T09:12:54;100055.63;;;25.84;41.63
76973;BME280;65907;53.640;10.050;2023-08-30T09:15:20;100055.94;;;25.81;41.44
76973;BME280;65907;53.640;10.050;2023-08-30T09:17:46;100062.19;;;25.80;41.58
76973;BME280;65907;53.640;10.050;2023-08-30T09:20:12;100061.03;;;25.83;41.71
76973;BME280;65907;53.640;10.050;2023-08-30T09:22:38;100066.84;;;25.78;41.61
76973;BME280;65907;53.640;10.050;2023-08-30T09:25:03;100071.41;;;25.84;41.40
76973;BME280;65907;53.640;10.050;2023-08-30T09:27:32;100069.59;;;25.85;41.59
76973;BME280;65907;53.640;10.050;2023-08-30T09:29:58;100067.81;;;25.77;41.69
76973;BME280;65907;53.640;10.050;2023-08-30T09:32:23;100067.38;;;25.73;41.95
76973;BME280;65907;53.640;10.050;2023-08-30T09:34:49;100074.09;;;25.76;41.72
76973;BME280;65907;53.640;10.050;2023-08-30T09:37:21;100070.00;;;25.73;41.85
76973;BME280;65907;53.640;10.050;2023-08-30T09:39:49;100067.19;;;25.75;41.70
76973;BME280;65907;53.640;10.050;2023-08-30T09:42:16;100063.28;;;25.71;41.72
76973;BME280;65907;53.640;10.050;2023-08-30T09:44:42;100060.75;;;25.77;41.74
76973;BME280;65907;53.640;10.050;2023-08-30T09:47:07;100057.38;;;25.69;41.79
76973;BME280;65907;53.640;10.050;2023-08-30T09:49:34;100053.72;;;25.70;41.86
76973;BME280;65907;53.640;10.050;2023-08-30T09:52:03;100055.22;;;25.72;41.99
76973;BME280;65907;53.640;10.050;2023-08-30T09:54:31;100058.16;;;25.69;41.82
76973;BME280;65907;53.640;10.050;2023-08-30T09:56:57;100050.56;;;25.51;42.21
76973;BME280;65907;53.640;10.050;2023-08-30T09:59:24;100050.25;;;25.46;42.49
76973;BME280;65907;53.640;10.050;2023-08-30T10:01:50;100055.13;;;25.26;42.89
76973;BME280;65907;53.640;10.050;2023-08-30T10:04:17;100053.81;;;25.30;42.90
76973;BME280;65907;53.640;10.050;2023-08-30T10:06:43;100062.28;;;25.09;43.25
76973;BME280;65907;53.640;10.050;2023-08-30T10:09:10;100059.34;;;25.03;43.44
76973;BME280;65907;53.640;10.050;2023-08-30T10:11:35;100051.31;;;25.05;43.19
76973;BME280;65907;53.640;10.050;2023-08-30T10:14:05;100056.38;;;25.06;43.39
76973;BME280;65907;53.640;10.050;2023-08-30T10:17:03;100050.88;;;24.93;43.75
76973;BME280;65907;53.640;10.050;2023-08-30T10:19:24;100046.03;;;25.05;43.39
76973;BME280;65907;53.640;10.050;2023-08-30T10:22:02;100056.44;;;24.98;43.39
76973;BME280;65907;53.640;10.050;2023-08-30T10:24:29;100041.09;;;25.02;43.52
76973;BME280;65907;53.640;10.050;2023-08-30T10:26:56;100046.25;;;24.95;43.67
76973;BME280;65907;53.640;10.050;2023-08-30T10:29:22;100047.47;;;24.76;43.89
76973;BME280;65907;53.640;10.050;2023-08-30T10:31:48;100054.84;;;24.72;43.72
76973;BME280;65907;53.640;10.050;2023-08-30T10:34:15;100046.81;;;24.82;43.77
76973;BME280;65907;53.640;10.050;2023-08-30T10:36:41;100047.34;;;25.32;42.81
76973;BME280;65907;53.640;10.050;2023-08-30T10:39:11;100048.59;;;24.82;43.72
76973;BME280;65907;53.640;10.050;2023-08-30T10:41:36;100042.69;;;24.71;43.99
76973;BME280;65907;53.640;10.050;2023-08-30T10:44:01;100046.66;;;24.75;43.79
76973;BME280;65907;53.640;10.050;2023-08-30T10:46:31;100038.44;;;24.70;43.87
76973;BME280;65907;53.640;10.050;2023-08-30T10:49:07;100037.44;;;24.80;43.91
76973;BME280;65907;53.640;10.050;2023-08-30T10:51:34;100031.53;;;24.69;43.90
76973;BME280;65907;53.640;10.050;2023-08-30T10:54:09;100027.41;;;24.83;43.58
76973;BME280;65907;53.640;10.050;2023-08-30T10:56:34;100034.75;;;24.88;43.60
76973;BME280;65907;53.640;10.050;2023-08-30T10:59:01;100028.22;;;24.84;43.67
76973;BME280;65907;53.640;10.050;2023-08-30T11:01:27;100020.50;;;24.74;43.83
76973;BME280;65907;53.640;10.050;2023-08-30T11:03:52;100021.97;;;24.85;43.64
76973;BME280;65907;53.640;10.050;2023-08-30T11:06:17;100019.97;;;24.87;43.75
76973;BME280;65907;53.640;10.050;2023-08-30T11:08:43;100014.69;;;24.95;43.37
76973;BME280;65907;53.640;10.050;2023-08-30T11:11:09;100012.41;;;24.92;43.55
76973;BME280;65907;53.640;10.050;2023-08-30T11:13:36;100007.16;;;24.84;43.63
76973;BME280;65907;53.640;10.050;2023-08-30T11:16:01;100009.09;;;24.90;43.57
76973;BME280;65907;53.640;10.050;2023-08-30T11:18:29;100013.22;;;24.92;43.44
76973;BME280;65907;53.640;10.050;2023-08-30T11:21:00;100002.75;;;24.84;43.64
76973;BME280;65907;53.640;10.050;2023-08-30T11:23:28;100001.19;;;24.98;43.41
76973;BME280;65907;53.640;10.050;2023-08-30T11:25:53;99991.03;;;24.95;43.33
76973;BME280;65907;53.640;10.050;2023-08-30T11:28:22;99993.94;;;25.00;43.30
76973;BME280;65907;53.640;10.050;2023-08-30T11:30:48;99992.91;;;25.10;43.14
76973;BME280;65907;53.640;10.050;2023-08-30T11:33:13;99989.50;;;25.01;43.45
76973;BME280;65907;53.640;10.050;2023-08-30T11:35:41;99981.44;;;25.02;43.27
76973;BME280;65907;53.640;10.050;2023-08-30T11:38:09;99982.38;;;25.10;43.21
76973;BME280;65907;53.640;10.050;2023-08-30T11:40:34;99979.88;;;25.16;43.00
76973;BME280;65907;53.640;10.050;2023-08-30T11:43:00;99971.34;;;25.14;43.38
76973;BME280;65907;53.640;10.050;2023-08-30T11:45:26;99970.00;;;25.18;43.13
76973;BME280;65907;53.640;10.050;2023-08-30T11:47:53;99961.34;;;25.10;43.41
76973;BME280;65907;53.640;10.050;2023-08-30T11:50:19;99964.09;;;25.16;43.11
76973;BME280;65907;53.640;10.050;2023-08-30T11:52:45;99960.94;;;25.21;43.00
76973;BME280;65907;53.640;10.050;2023-08-30T11:55:10;99945.97;;;25.22;42.95
76973;BME280;65907;53.640;10.050;2023-08-30T11:57:37;99944.44;;;25.27;42.95
76973;BME280;65907;53.640;10.050;2023-08-30T12:00:14;99941.06;;;25.18;42.99
76973;BME280;65907;53.640;10.050;2023-08-30T12:02:40;99944.53;;;25.19;43.15
76973;BME280;65907;53.640;10.050;2023-08-30T12:05:05;99946.50;;;25.17;43.22
76973;BME280;65907;53.640;10.050;2023-08-30T12:07:33;99940.78;;;25.60;42.22
76973;BME280;65907;53.640;10.050;2023-08-30T12:10:07;99941.13;;;25.57;42.28
76973;BME280;65907;53.640;10.050;2023-08-30T12:12:33;99935.00;;;25.18;43.17
76973;BME280;65907;53.640;10.050;2023-08-30T12:15:01;99924.56;;;25.25;43.06
76973;BME280;65907;53.640;10.050;2023-08-30T12:17:27;99928.53;;;25.20;43.14
76973;BME280;65907;53.640;10.050;2023-08-30T12:19:56;99921.00;;;25.17;43.16
76973;BME280;65907;53.640;10.050;2023-08-30T12:22:21;99913.00;;;25.11;43.45
76973;BME280;65907;53.640;10.050;2023-08-30T12:24:49;99912.69;;;25.05;43.62
76973;BME280;65907;53.640;10.050;2023-08-30T12:27:14;99910.38;;;25.11;43.08
76973;BME280;65907;53.640;10.050;2023-08-30T12:29:40;99905.56;;;24.91;43.42
76973;BME280;65907;53.640;10.050;2023-08-30T12:32:08;99912.56;;;24.99;43.22
76973;BME280;65907;53.640;10.050;2023-08-30T12:34:33;99908.31;;;24.98;43.41
76973;BME280;65907;53.640;10.050;2023-08-30T12:36:59;99907.97;;;25.01;43.34
76973;BME280;65907;53.640;10.050;2023-08-30T12:39:24;99906.31;;;25.00;43.28
76973;BME280;65907;53.640;10.050;2023-08-30T12:41:49;99904.41;;;24.94;43.53
76973;BME280;65907;53.640;10.050;2023-08-30T12:44:14;99906.81;;;25.03;43.29